Terminal Aerodrome Forecast
Issued by NWS

Home | Current Version | Previous Version | Text Only | Print | Product List | Glossary On
Versions: 1 2 3 4 5 6 7 8 9 10 11 12 13 14 15 16 17 18
000
FTAK31 PAFA 160923 AAA
TAFABT
TAF AMD
PABT 160923Z 1609/1706 34003KT P6SM VCSH SCT130
     FM161200 02006KT 5SM -SN BR BKN015 BKN040
     FM161600 02004KT 4SM -SN OVC025
     FM162200 03003KT 1 1/2SM -SN BR OVC025=

USA.gov is the U.S. government's official web portal to all federal, state and local government web resources and services.